Time;durP1;ratioP1;P1;durP2;ratioP2;P2;SDS_P1;SDS_P2;PMS_P1;PMS_P2;Temp;Humidity;BMP_temperature;BMP_pressure;BME280_temperature;BME280_humidity;BME280_pressure;Samples;Min_cycle;Max_cycle;Signal;HPM_P1;HPM_P2
2021/08/25 00:00:59;;;;;;;21.83;16.23;;;;;;;14.17;100.00;102726.38;2615941;36;20027;-66
2021/08/25 00:03:28;;;;;;;24.63;18.30;;;;;;;14.11;100.00;102722.28;2616312;36;20287;-63
2021/08/25 00:05:56;;;;;;;20.80;16.92;;;;;;;14.05;100.00;102724.59;2616717;36;20023;-66
2021/08/25 00:08:25;;;;;;;26.23;19.13;;;;;;;14.01;100.00;102716.66;2616323;36;20022;-65
2021/08/25 00:10:53;;;;;;;20.63;16.80;;;;;;;13.97;100.00;102719.72;2617093;36;20034;-64
2021/08/25 00:13:21;;;;;;;22.60;17.63;;;;;;;13.93;100.00;102710.97;2617137;36;20450;-66
2021/08/25 00:15:50;;;;;;;25.35;18.50;;;;;;;13.89;100.00;102716.72;2615398;36;20580;-65
2021/08/25 00:18:21;;;;;;;26.93;20.50;;;;;;;13.84;100.00;102720.63;2615014;36;20030;-64
2021/08/25 00:20:49;;;;;;;21.55;17.92;;;;;;;13.89;100.00;102711.31;2616069;36;20407;-66
2021/08/25 00:23:17;;;;;;;23.50;17.57;;;;;;;13.84;100.00;102707.09;2615751;31;20384;-63
2021/08/25 00:25:45;;;;;;;21.33;17.90;;;;;;;13.82;100.00;102709.06;2615179;36;20034;-66
2021/08/25 00:28:14;;;;;;;23.25;18.88;;;;;;;13.80;100.00;102707.44;2616512;36;20031;-65
2021/08/25 00:30:42;;;;;;;20.30;16.95;;;;;;;13.79;100.00;102701.16;2616641;31;20471;-66
2021/08/25 00:33:10;;;;;;;23.00;18.15;;;;;;;13.79;100.00;102695.72;2615489;36;20145;-64
2021/08/25 00:35:41;;;;;;;21.90;18.35;;;;;;;13.73;100.00;102700.75;2616684;36;20022;-65
2021/08/25 00:38:09;;;;;;;28.73;21.08;;;;;;;13.71;100.00;102692.75;2617324;31;20546;-64
2021/08/25 00:40:38;;;;;;;25.80;19.80;;;;;;;13.71;100.00;102691.88;2616005;36;20210;-64
2021/08/25 00:43:07;;;;;;;24.55;18.23;;;;;;;13.65;100.00;102691.34;2616433;36;20031;-64
2021/08/25 00:45:36;;;;;;;27.85;19.88;;;;;;;13.57;100.00;102691.00;2616821;36;20034;-64
2021/08/25 00:48:05;;;;;;;;;;;;;;;13.60;100.00;102689.94;2615824;31;20027;-65
2021/08/25 00:50:35;;;;;;;23.20;19.23;;;;;;;13.58;100.00;102687.34;2617774;31;20632;-65
2021/08/25 00:53:06;;;;;;;26.25;20.33;;;;;;;13.48;100.00;102680.88;2616746;31;20066;-65
2021/08/25 00:55:36;;;;;;;21.63;17.88;;;;;;;13.54;100.00;102688.53;2616571;36;20027;-64
2021/08/25 00:58:05;;;;;;;27.45;19.98;;;;;;;13.48;100.00;102686.28;2615221;36;20026;-65
2021/08/25 01:00:34;;;;;;;26.23;20.38;;;;;;;13.43;100.00;102689.31;2616120;36;20630;-65
2021/08/25 01:03:09;;;;;;;25.55;19.13;;;;;;;13.40;100.00;102684.13;2616816;31;20408;-64
2021/08/25 01:05:40;;;;;;;22.83;19.10;;;;;;;13.39;100.00;102686.94;2616675;36;20606;-64
2021/08/25 01:08:13;;;;;;;27.00;21.05;;;;;;;13.32;100.00;102686.47;2616218;31;20035;-64
2021/08/25 01:10:41;;;;;;;26.27;19.70;;;;;;;13.30;100.00;102685.72;2615483;36;20038;-65
2021/08/25 01:13:12;;;;;;;24.67;18.95;;;;;;;13.28;100.00;102684.94;2616138;36;21122;-64
2021/08/25 01:15:43;;;;;;;25.83;20.40;;;;;;;13.19;100.00;102681.09;2616101;36;20129;-65
2021/08/25 01:18:14;;;;;;;25.02;19.95;;;;;;;13.17;100.00;102669.50;2616434;31;20531;-64
2021/08/25 01:20:45;;;;;;;21.75;18.60;;;;;;;13.14;100.00;102673.28;2618071;31;20544;-63
2021/08/25 01:23:17;;;;;;;24.90;19.00;;;;;;;13.14;100.00;102677.84;2616386;36;20026;-63
2021/08/25 01:25:46;;;;;;;25.75;19.67;;;;;;;13.09;100.00;102670.06;2615937;31;20534;-63
2021/08/25 01:28:19;;;;;;;25.27;20.30;;;;;;;13.08;100.00;102667.47;2607235;31;20153;-65
2021/08/25 01:30:51;;;;;;;29.98;21.85;;;;;;;13.16;100.00;102665.06;2617235;36;20521;-65
2021/08/25 01:33:20;;;;;;;25.30;20.20;;;;;;;13.10;100.00;102666.38;2615051;36;20034;-65
2021/08/25 01:35:48;;;;;;;25.83;20.58;;;;;;;13.07;100.00;102665.72;2608739;36;20122;-66
2021/08/25 01:38:25;;;;;;;31.00;23.30;;;;;;;13.12;100.00;102663.56;2616181;31;20027;-65
2021/08/25 01:40:53;;;;;;;30.85;23.35;;;;;;;13.06;100.00;102659.47;2616141;36;20030;-66
2021/08/25 01:43:21;;;;;;;29.50;22.05;;;;;;;13.07;100.00;102658.50;2608859;36;20157;-66
2021/08/25 01:45:52;;;;;;;36.03;25.55;;;;;;;13.04;100.00;102657.81;2616665;31;20074;-65
2021/08/25 01:48:21;;;;;;;29.02;23.13;;;;;;;13.04;100.00;102657.81;2615797;36;20166;-64
2021/08/25 01:50:50;;;;;;;;;;;;;;;12.98;100.00;102656.41;2616018;36;20029;-64
2021/08/25 01:53:18;;;;;;;26.97;21.77;;;;;;;12.96;100.00;102656.53;2616846;36;20045;-64
2021/08/25 01:55:47;;;;;;;26.50;21.70;;;;;;;12.92;100.00;102655.00;2616222;31;20034;-64
2021/08/25 01:58:15;;;;;;;26.33;21.05;;;;;;;12.87;100.00;102654.47;2615773;36;20058;-65
2021/08/25 02:00:43;;;;;;;28.48;20.80;;;;;;;12.87;100.00;102651.78;2616530;36;20669;-64
2021/08/25 02:03:14;;;;;;;25.97;20.70;;;;;;;12.86;100.00;102651.88;2614716;54;21279;-65
2021/08/25 02:05:42;;;;;;;28.58;22.88;;;;;;;12.88;100.00;102645.41;2615215;36;20387;-65
2021/08/25 02:08:11;;;;;;;26.45;21.08;;;;;;;12.79;100.00;102640.63;2615685;36;20118;-64
2021/08/25 02:10:39;;;;;;;;;;;;;;;12.76;100.00;102641.72;2615960;36;20561;-65
2021/08/25 02:13:08;;;;;;;26.85;21.92;;;;;;;12.78;100.00;102634.38;2616258;36;20030;-67
2021/08/25 02:15:36;;;;;;;26.88;22.13;;;;;;;12.80;100.00;102632.41;2616383;36;20410;-66
2021/08/25 02:18:04;;;;;;;32.13;24.23;;;;;;;12.69;100.00;102631.44;2615681;36;20134;-66
2021/08/25 02:20:35;;;;;;;29.50;22.85;;;;;;;12.72;100.00;102632.09;2616090;36;20606;-64
2021/08/25 02:23:03;;;;;;;30.38;22.83;;;;;;;12.78;100.00;102636.22;2609186;36;20026;-65
2021/08/25 02:25:32;;;;;;;35.63;27.30;;;;;;;12.71;100.00;102640.31;2615629;36;20118;-64
2021/08/25 02:28:12;;;;;;;31.17;23.38;;;;;;;12.72;100.00;102628.50;2614170;36;20118;-65
2021/08/25 02:30:41;;;;;;;31.17;23.77;;;;;;;12.59;100.00;102632.06;2615751;36;20114;-65
2021/08/25 02:33:09;;;;;;;32.47;25.60;;;;;;;12.57;100.00;102630.44;2616458;36;20161;-64
2021/08/25 02:35:40;;;;;;;33.03;26.63;;;;;;;12.61;100.00;102640.91;2616170;36;20517;-65
2021/08/25 02:38:08;;;;;;;30.52;24.10;;;;;;;12.55;100.00;102637.78;2615720;36;20181;-65
2021/08/25 02:40:37;;;;;;;31.05;24.33;;;;;;;12.65;100.00;102632.59;2614955;36;20633;-65
2021/08/25 02:43:05;;;;;;;31.02;24.45;;;;;;;12.58;100.00;102626.78;2615366;36;20117;-66
2021/08/25 02:45:33;;;;;;;28.20;23.00;;;;;;;12.54;100.00;102631.50;2616407;36;20126;-65
2021/08/25 02:48:01;;;;;;;29.83;24.58;;;;;;;12.52;100.00;102627.22;2616155;36;20123;-65
2021/08/25 02:50:30;;;;;;;30.40;24.20;;;;;;;12.48;100.00;102626.53;2615399;36;20078;-65
2021/08/25 02:53:00;;;;;;;35.38;26.13;;;;;;;12.49;100.00;102628.28;2616810;36;20924;-65
2021/08/25 02:55:29;;;;;;;36.38;27.63;;;;;;;12.56;100.00;102623.34;2617182;36;20133;-66
2021/08/25 02:57:58;;;;;;;31.60;25.25;;;;;;;12.51;100.00;102610.13;2616200;36;20051;-65
2021/08/25 03:00:26;;;;;;;32.42;25.35;;;;;;;12.43;100.00;102616.06;2616021;36;20169;-64
2021/08/25 03:02:54;;;;;;;31.88;25.88;;;;;;;12.40;100.00;102607.31;2616469;36;20125;-64
2021/08/25 03:05:22;;;;;;;30.92;24.92;;;;;;;12.35;100.00;102602.22;2617580;36;20085;-65
2021/08/25 03:07:51;;;;;;;34.63;26.67;;;;;;;12.33;100.00;102601.44;2615717;36;20023;-65
2021/08/25 03:10:21;;;;;;;34.42;25.83;;;;;;;12.28;100.00;102598.22;2616023;36;20161;-65
2021/08/25 03:12:50;;;;;;;31.63;23.98;;;;;;;12.32;100.00;102598.84;2616789;36;20031;-64
2021/08/25 03:15:18;;;;;;;35.08;27.67;;;;;;;12.21;100.00;102600.44;2616308;31;20026;-65
2021/08/25 03:17:46;;;;;;;31.33;24.40;;;;;;;12.18;100.00;102591.72;2617586;36;20129;-64
2021/08/25 03:20:15;;;;;;;30.80;24.08;;;;;;;12.17;100.00;102590.81;2615669;31;20122;-65
2021/08/25 03:22:44;;;;;;;35.90;26.55;;;;;;;12.12;100.00;102587.59;2615226;36;20019;-64
2021/08/25 03:25:12;;;;;;;29.33;23.73;;;;;;;12.14;100.00;102593.72;2616570;36;20618;-64
2021/08/25 03:27:43;;;;;;;33.88;26.33;;;;;;;12.00;100.00;102583.00;2616563;36;20034;-66
2021/08/25 03:32:44;;;;;;;29.80;23.25;;;;;;;11.98;100.00;102571.44;2614127;36;20018;-64
2021/08/25 03:35:13;;;;;;;29.38;23.60;;;;;;;11.94;100.00;102572.63;2616170;36;20603;-64
2021/08/25 03:37:41;;;;;;;29.53;23.80;;;;;;;11.96;100.00;102571.56;2614832;36;20033;-65
2021/08/25 03:40:11;;;;;;;29.47;22.43;;;;;;;11.92;100.00;102567.28;2615618;31;21976;-65
2021/08/25 03:42:39;;;;;;;26.30;22.30;;;;;;;11.94;100.00;102562.72;2615320;36;20122;-66
2021/08/25 03:45:11;;;;;;;29.73;23.35;;;;;;;11.91;100.00;102563.75;2616990;31;20509;-65
2021/08/25 03:47:40;;;;;;;29.48;23.88;;;;;;;11.91;100.00;102561.03;2617771;31;20516;-66
2021/08/25 03:50:09;;;;;;;26.27;22.73;;;;;;;11.90;100.00;102559.31;2616034;36;20118;-66
2021/08/25 03:52:37;;;;;;;28.52;23.45;;;;;;;11.84;100.00;102557.03;2615824;36;20030;-64
2021/08/25 03:55:07;;;;;;;27.67;22.08;;;;;;;11.84;100.00;102557.03;2616494;36;21113;-64
2021/08/25 03:57:35;;;;;;;26.05;22.05;;;;;;;11.71;100.00;102545.31;2616177;31;20124;-64
2021/08/25 04:00:03;;;;;;;29.50;23.77;;;;;;;11.71;100.00;102545.31;2616167;36;20148;-65
2021/08/25 04:02:34;;;;;;;33.28;25.38;;;;;;;11.72;100.00;102545.22;2617086;36;20066;-65
2021/08/25 04:05:02;;;;;;;32.85;24.83;;;;;;;11.73;100.00;102541.56;2615960;36;20133;-65
2021/08/25 04:07:31;;;;;;;28.23;23.87;;;;;;;11.73;100.00;102546.06;2616190;36;20082;-64
2021/08/25 04:09:59;;;;;;;30.20;25.05;;;;;;;11.74;100.00;102550.50;2615493;36;20034;-65
2021/08/25 04:12:27;;;;;;;29.45;23.88;;;;;;;11.66;100.00;102542.06;2615115;36;20098;-64
2021/08/25 04:14:55;;;;;;;33.55;23.25;;;;;;;11.63;100.00;102548.53;2615344;36;20206;-65
2021/08/25 04:17:23;;;;;;;27.70;22.85;;;;;;;11.60;100.00;102543.34;2615801;36;20133;-65
2021/08/25 04:19:55;;;;;;;33.22;24.90;;;;;;;11.62;100.00;102540.56;2615915;36;20077;-65
2021/08/25 04:22:23;;;;;;;30.90;24.45;;;;;;;11.60;100.00;102542.47;2616279;36;20241;-64
2021/08/25 04:24:51;;;;;;;29.85;24.05;;;;;;;11.58;100.00;102538.03;2615347;31;20636;-65
2021/08/25 04:27:19;;;;;;;33.95;24.90;;;;;;;11.56;100.00;102539.97;2616076;36;20641;-66
2021/08/25 04:29:47;;;;;;;29.67;23.98;;;;;;;11.51;100.00;102538.53;2615994;31;20158;-65
2021/08/25 04:32:16;;;;;;;27.27;22.50;;;;;;;11.60;100.00;102534.38;2616105;31;20158;-65
2021/08/25 04:34:44;;;;;;;33.65;25.42;;;;;;;11.56;100.00;102536.44;2616501;36;20113;-64
2021/08/25 04:37:15;;;;;;;31.80;25.42;;;;;;;11.50;100.00;102535.00;2615973;36;20177;-65
2021/08/25 04:39:43;;;;;;;30.00;24.73;;;;;;;11.41;100.00;102543.69;2615572;36;20121;-64
2021/08/25 04:42:11;;;;;;;36.63;26.52;;;;;;;11.47;100.00;102548.69;2615611;36;20046;-63
2021/08/25 04:44:39;;;;;;;29.85;23.83;;;;;;;11.51;100.00;102544.81;2616117;36;20058;-65
2021/08/25 04:47:07;;;;;;;31.00;25.95;;;;;;;11.54;100.00;102544.63;2616054;36;20037;-65
2021/08/25 04:49:36;;;;;;;32.40;24.52;;;;;;;11.62;100.00;102543.25;2616233;36;20042;-64
2021/08/25 04:52:04;;;;;;;31.83;24.98;;;;;;;11.66;100.00;102545.63;2616372;36;20113;-65
2021/08/25 04:54:35;;;;;;;31.53;26.03;;;;;;;11.69;100.00;102536.44;2614863;31;20149;-65
2021/08/25 04:57:03;;;;;;;33.42;25.52;;;;;;;11.83;100.00;102549.03;2615528;36;20068;-65
2021/08/25 04:59:31;;;;;;;37.25;27.02;;;;;;;11.94;100.00;102551.91;2615612;36;20026;-64
2021/08/25 05:02:00;;;;;;;41.80;29.63;;;;;;;11.95;100.00;102545.53;2615273;36;20053;-65
2021/08/25 05:04:28;;;;;;;42.10;29.38;;;;;;;12.11;100.00;102545.38;2614144;36;20117;-63
2021/08/25 05:06:56;;;;;;;41.63;30.42;;;;;;;12.23;100.00;102546.34;2615963;36;20057;-63
2021/08/25 05:09:24;;;;;;;66.32;31.70;;;;;;;12.25;100.00;102542.59;2615690;36;20034;-64
2021/08/25 05:11:56;;;;;;;46.50;33.33;;;;;;;12.35;100.00;102539.25;2614154;36;20106;-64
2021/08/25 05:14:24;;;;;;;44.55;31.50;;;;;;;12.41;100.00;102537.00;2615638;36;20050;-64
2021/08/25 05:16:52;;;;;;;41.88;28.88;;;;;;;12.47;100.00;102538.41;2614304;31;20614;-64
2021/08/25 05:19:21;;;;;;;42.63;32.17;;;;;;;12.57;100.00;102533.19;2615746;36;20121;-64
2021/08/25 05:21:49;;;;;;;42.30;32.53;;;;;;;12.66;100.00;102534.38;2616518;31;20613;-64
2021/08/25 05:24:17;;;;;;;48.63;32.30;;;;;;;12.78;100.00;102530.84;2614591;31;20057;-64
2021/08/25 05:26:45;;;;;;;41.53;30.40;;;;;;;12.81;100.00;102525.22;2614634;36;20030;-64
2021/08/25 05:29:16;;;;;;;45.05;32.55;;;;;;;12.85;100.00;102525.84;2615721;31;20471;-64
2021/08/25 05:31:44;;;;;;;43.58;32.17;;;;;;;12.87;100.00;102532.03;2615435;36;20030;-65
2021/08/25 05:34:13;;;;;;;45.17;32.13;;;;;;;12.94;100.00;102534.16;2616275;32;20130;-65
2021/08/25 05:36:42;;;;;;;47.30;32.95;;;;;;;13.04;100.00;102536.19;2617081;36;20030;-64
2021/08/25 05:39:10;;;;;;;46.22;31.33;;;;;;;13.01;100.00;102537.28;2615896;36;20038;-66
2021/08/25 05:41:38;;;;;;;53.72;32.25;;;;;;;13.21;100.00;102533.13;2615996;36;20507;-65
2021/08/25 05:44:06;;;;;;;43.70;32.45;;;;;;;13.29;100.00;102533.44;2616441;36;20045;-64
2021/08/25 05:46:37;;;;;;;42.73;29.80;;;;;;;13.41;100.00;102539.81;2615773;36;20573;-64
2021/08/25 05:49:06;;;;;;;45.40;32.05;;;;;;;13.34;100.00;102538.53;2612789;36;20084;-65
2021/08/25 05:51:34;;;;;;;41.45;30.45;;;;;;;13.48;100.00;102541.06;2614661;36;20142;-64
2021/08/25 05:54:02;;;;;;;44.63;31.85;;;;;;;13.58;100.00;102546.66;2615372;36;20134;-63
2021/08/25 05:56:30;;;;;;;41.42;30.67;;;;;;;13.70;100.00;102539.47;2614537;36;20653;-64
2021/08/25 05:58:58;;;;;;;45.75;34.30;;;;;;;13.74;100.00;102540.13;2613928;36;20146;-64
2021/08/25 06:01:27;;;;;;;45.00;33.35;;;;;;;13.74;100.00;102546.38;2615358;36;20181;-64
2021/08/25 06:03:57;;;;;;;54.73;32.77;;;;;;;13.79;100.00;102549.59;2616335;36;20584;-64
2021/08/25 06:06:31;;;;;;;53.45;34.42;;;;;;;13.73;100.00;102549.19;2617088;36;20811;-64
2021/08/25 06:08:59;;;;;;;49.88;35.30;;;;;;;13.74;100.00;102553.66;2616222;36;20034;-64
2021/08/25 06:11:28;;;;;;;43.60;31.17;;;;;;;13.85;100.00;102548.25;2615529;36;20046;-63
2021/08/25 06:13:56;;;;;;;43.38;31.75;;;;;;;13.91;100.00;102550.50;2614499;36;20038;-64
2021/08/25 06:16:24;;;;;;;42.95;33.72;;;;;;;14.06;100.00;102550.31;2616019;36;20249;-64
2021/08/25 06:18:53;;;;;;;39.92;32.03;;;;;;;14.15;100.00;102550.47;2615611;31;20122;-63
2021/08/25 06:21:24;;;;;;;36.85;29.67;;;;;;;14.20;100.00;102547.41;2615435;31;20419;-65
2021/08/25 06:23:52;;;;;;;33.90;27.25;;;;;;;14.24;100.00;102529.09;2616697;36;20041;-65
2021/08/25 06:26:20;;;;;;;34.58;27.23;;;;;;;14.34;100.00;102536.38;2616009;36;20531;-64
2021/08/25 06:28:49;;;;;;;34.15;27.25;;;;;;;14.29;100.00;102535.84;2611722;36;20034;-65
2021/08/25 06:31:17;;;;;;;31.90;25.23;;;;;;;14.43;100.00;102537.50;2613272;36;20129;-64
2021/08/25 06:33:45;;;;;;;29.00;24.60;;;;;;;14.49;100.00;102526.19;2614715;36;20129;-64
2021/08/25 06:36:13;;;;;;;30.02;24.73;;;;;;;14.55;100.00;102527.56;2614244;36;20126;-64
2021/08/25 06:38:44;;;;;;;33.63;25.20;;;;;;;14.42;100.00;102534.91;2614851;36;20156;-64
2021/08/25 06:41:12;;;;;;;28.48;24.55;;;;;;;14.36;100.00;102525.41;2614333;36;20510;-64
2021/08/25 06:43:40;;;;;;;30.15;24.73;;;;;;;14.40;100.00;102531.44;2612675;36;20113;-64
2021/08/25 06:46:09;;;;;;;31.88;24.60;;;;;;;14.52;100.00;102525.94;2615475;36;20129;-64
2021/08/25 06:48:37;;;;;;;36.67;25.85;;;;;;;14.55;100.00;102525.69;2616116;36;20069;-64
2021/08/25 06:51:05;;;;;;;33.40;27.25;;;;;;;14.73;100.00;102538.81;2614909;36;20030;-65
2021/08/25 06:53:33;;;;;;;33.43;25.47;;;;;;;14.79;100.00;102537.44;2616594;36;20022;-65
2021/08/25 06:56:04;;;;;;;31.65;24.50;;;;;;;14.87;100.00;102532.28;2614111;36;20170;-65
2021/08/25 06:58:32;;;;;;;31.83;24.98;;;;;;;15.02;100.00;102528.31;2578602;31;20057;-65
2021/08/25 07:01:01;;;;;;;30.65;25.48;;;;;;;15.03;100.00;102524.63;2615669;36;20114;-64
2021/08/25 07:03:29;;;;;;;30.08;24.05;;;;;;;14.96;100.00;102517.09;2614530;36;20121;-66
2021/08/25 07:05:57;;;;;;;27.77;22.47;;;;;;;15.06;100.00;102513.53;2614020;36;20023;-65
2021/08/25 07:08:25;;;;;;;27.40;22.25;;;;;;;15.09;100.00;102516.97;2616415;36;20023;-66
2021/08/25 07:10:54;;;;;;;32.63;23.55;;;;;;;15.22;100.00;102513.16;2616814;36;20155;-64
2021/08/25 07:13:24;;;;;;;30.80;23.98;;;;;;;15.19;100.00;102512.53;2616008;36;20137;-64
2021/08/25 07:15:52;;;;;;;30.92;23.90;;;;;;;15.07;100.00;102509.84;2614896;31;20550;-65
2021/08/25 07:18:21;;;;;;;31.10;23.42;;;;;;;15.38;100.00;102504.59;2615123;36;20506;-64
2021/08/25 07:20:49;;;;;;;29.65;23.80;;;;;;;15.69;100.00;102502.00;2614968;31;20102;-64
2021/08/25 07:23:17;;;;;;;31.63;24.58;;;;;;;15.52;100.00;102498.03;2615754;36;20494;-66
2021/08/25 07:25:46;;;;;;;33.13;25.60;;;;;;;15.24;100.00;102510.31;2615370;36;20660;-64
2021/08/25 07:28:14;;;;;;;36.33;27.20;;;;;;;15.36;100.00;102514.72;2615275;36;20625;-63
2021/08/25 07:30:45;;;;;;;36.77;27.43;;;;;;;15.54;100.00;102512.31;2612371;36;20126;-66
2021/08/25 07:33:15;;;;;;;36.83;25.55;;;;;;;15.77;100.00;102521.25;2615907;31;20505;-64
2021/08/25 07:35:48;;;;;;;35.67;28.13;;;;;;;15.65;100.00;102511.44;2614689;36;20030;-63
2021/08/25 07:38:17;;;;;;;37.45;27.65;;;;;;;15.76;100.00;102508.66;2611898;36;20030;-65
2021/08/25 07:40:46;;;;;;;33.38;26.10;;;;;;;16.06;100.00;102504.38;2616102;36;20034;-64
2021/08/25 07:43:15;;;;;;;31.38;24.67;;;;;;;16.14;100.00;102500.97;2615796;36;20121;-64
2021/08/25 07:45:45;;;;;;;34.47;26.52;;;;;;;16.04;100.00;102502.75;2616013;36;20110;-65
2021/08/25 07:48:14;;;;;;;31.20;27.02;;;;;;;16.26;100.00;102501.75;2609741;36;20025;-64
2021/08/25 07:50:42;;;;;;;35.05;28.30;;;;;;;16.50;100.00;102503.34;2615242;36;20153;-64
2021/08/25 07:53:10;;;;;;;32.83;26.13;;;;;;;16.26;100.00;102496.34;2614273;36;20137;-64
2021/08/25 07:55:39;;;;;;;31.02;24.77;;;;;;;16.33;100.00;102494.81;2615015;31;20306;-65
2021/08/25 07:58:07;;;;;;;29.63;24.93;;;;;;;16.55;100.00;102496.50;2616245;31;20035;-65
2021/08/25 08:00:35;;;;;;;30.97;23.90;;;;;;;16.22;100.00;102503.03;2614982;31;20030;-64
2021/08/25 08:03:07;;;;;;;30.38;24.27;;;;;;;16.37;100.00;102509.84;2615569;36;20173;-64
2021/08/25 08:05:35;;;;;;;27.23;22.80;;;;;;;16.52;100.00;102495.91;2615582;36;20038;-63
2021/08/25 08:08:03;;;;;;;25.05;21.05;;;;;;;16.57;100.00;102493.66;2615178;31;20141;-65
2021/08/25 08:10:31;;;;;;;38.50;23.02;;;;;;;16.49;100.00;102494.31;2615556;36;20362;-65
2021/08/25 08:13:00;;;;;;;31.37;21.77;;;;;;;16.51;100.00;102495.03;2615658;36;20030;-65
2021/08/25 08:15:30;;;;;;;35.47;22.23;;;;;;;16.30;100.00;102497.78;2614912;36;20134;-64
2021/08/25 08:18:06;;;;;;;34.17;20.80;;;;;;;16.23;100.00;102497.44;2614719;36;20038;-64
2021/08/25 08:20:37;;;;;;;27.42;19.05;;;;;;;16.40;100.00;102498.72;2614752;36;20037;-64
2021/08/25 08:23:06;;;;;;;33.00;20.92;;;;;;;16.23;100.00;102491.16;2615194;36;20058;-64
2021/08/25 08:25:35;;;;;;;31.27;19.50;;;;;;;16.36;100.00;102496.41;2614416;36;20122;-65
2021/08/25 08:28:03;;;;;;;29.08;18.27;;;;;;;16.29;100.00;102498.78;2616154;36;20130;-64
2021/08/25 08:30:32;;;;;;;27.07;17.43;;;;;;;16.29;100.00;102490.63;2615660;36;20577;-63
2021/08/25 08:33:02;;;;;;;28.95;19.33;;;;;;;16.44;100.00;102491.13;2615417;36;20030;-64
2021/08/25 08:35:31;;;;;;;;;;;;;;;16.66;100.00;102490.09;2616373;36;20133;-64
2021/08/25 08:38:02;;;;;;;25.35;18.05;;;;;;;16.88;100.00;102477.34;2614744;36;19938;-64
2021/08/25 08:40:31;;;;;;;25.05;16.98;;;;;;;17.10;100.00;102479.84;2612537;36;20038;-65
2021/08/25 08:43:06;;;;;;;25.95;16.60;;;;;;;17.11;100.00;102476.13;2614888;36;20031;-67
2021/08/25 08:45:39;;;;;;;22.13;16.45;;;;;;;17.09;100.00;102469.97;2615691;31;20630;-66
2021/08/25 08:48:09;;;;;;;26.00;17.65;;;;;;;17.20;100.00;102470.84;2615298;36;20545;-65
2021/08/25 08:50:39;;;;;;;23.20;15.98;;;;;;;17.38;100.00;102454.69;2615644;36;20026;-65
2021/08/25 08:53:11;;;;;;;19.20;13.77;;;;;;;17.66;100.00;102469.31;2615395;36;20110;-65
2021/08/25 08:55:40;;;;;;;19.35;14.30;;;;;;;17.91;100.00;102450.69;2614562;31;20149;-66
2021/08/25 08:58:09;;;;;;;16.47;13.17;;;;;;;18.01;100.00;102446.94;2614474;31;20023;-64
2021/08/25 09:00:39;;;;;;;18.05;12.13;;;;;;;18.20;100.00;102445.19;2614501;31;20330;-64
2021/08/25 09:03:20;;;;;;;15.48;11.52;;;;;;;18.40;100.00;102440.50;2616389;36;20053;-65
2021/08/25 09:05:54;;;;;;;14.23;11.48;;;;;;;18.67;100.00;102436.13;2614467;36;20100;-65
2021/08/25 09:08:28;;;;;;;11.68;9.38;;;;;;;19.11;100.00;102433.59;2616083;31;20082;-65
2021/08/25 09:11:05;;;;;;;12.25;9.75;;;;;;;19.18;100.00;102426.47;2615455;36;20573;-64
2021/08/25 09:13:47;;;;;;;14.63;10.95;;;;;;;19.32;100.00;102437.91;2614785;36;20158;-64
2021/08/25 09:16:27;;;;;;;15.73;10.05;;;;;;;19.39;100.00;102428.03;2615399;36;20142;-65
2021/08/25 09:19:02;;;;;;;12.80;9.75;;;;;;;19.30;100.00;102431.72;2615217;36;20034;-66
2021/08/25 09:21:35;;;;;;;12.27;9.48;;;;;;;18.86;100.00;102425.13;2615898;31;20038;-63
2021/08/25 09:24:07;;;;;;;12.73;9.35;;;;;;;18.66;100.00;102426.22;2614995;36;20130;-64
2021/08/25 09:26:37;;;;;;;11.43;9.05;;;;;;;18.42;100.00;102430.31;2615344;36;20034;-63
2021/08/25 09:29:18;;;;;;;14.45;9.57;;;;;;;18.37;100.00;102430.78;2617218;31;20069;-62
2021/08/25 09:31:48;;;;;;;13.82;9.32;;;;;;;18.41;100.00;102425.88;2617718;36;20450;-63
2021/08/25 09:34:27;;;;;;;11.80;9.18;;;;;;;18.62;100.00;102422.06;2618005;31;20034;-62
2021/08/25 09:37:07;;;;;;;12.15;8.82;;;;;;;18.87;100.00;102418.66;2617268;36;20022;-62
2021/08/25 09:39:43;;;;;;;9.93;8.50;;;;;;;19.03;100.00;102414.38;2616781;36;20023;-63
2021/08/25 09:42:11;;;;;;;12.90;8.00;;;;;;;19.16;100.00;102412.13;2614794;36;20530;-63
2021/08/25 09:44:40;;;;;;;11.45;7.82;;;;;;;19.34;100.00;102412.13;2616157;36;20154;-62
2021/08/25 09:47:08;;;;;;;10.57;7.82;;;;;;;19.80;100.00;102412.03;2616311;36;20129;-62
2021/08/25 09:49:36;;;;;;;7.63;6.32;;;;;;;20.26;100.00;102409.94;2616303;31;20073;-63
2021/08/25 09:52:06;;;;;;;10.07;7.38;;;;;;;20.19;100.00;102408.03;2616400;31;20151;-62
2021/08/25 09:54:34;;;;;;;10.68;6.85;;;;;;;20.51;100.00;102409.22;2615794;36;20061;-63
2021/08/25 09:57:06;;;;;;;9.05;6.70;;;;;;;20.61;100.00;102409.94;2614330;36;20023;-63
2021/08/25 09:59:35;;;;;;;10.68;6.85;;;;;;;20.14;100.00;102424.94;2616398;36;20114;-62
2021/08/25 10:02:04;;;;;;;11.05;6.70;;;;;;;20.91;100.00;102404.97;2616799;36;20031;-62
2021/08/25 10:04:36;;;;;;;9.70;6.65;;;;;;;21.15;100.00;102402.25;2617120;36;20122;-64
2021/08/25 10:07:04;;;;;;;9.75;6.15;;;;;;;21.29;100.00;102400.75;2614625;31;20049;-64
2021/08/25 10:09:33;;;;;;;11.57;6.00;;;;;;;21.45;100.00;102404.50;2615671;36;20089;-64
2021/08/25 10:12:04;;;;;;;7.93;5.80;;;;;;;21.59;100.00;102387.41;2613730;36;20089;-62
2021/08/25 10:14:33;;;;;;;9.35;5.80;;;;;;;21.02;100.00;102392.81;2614760;36;20550;-62
2021/08/25 10:17:01;;;;;;;9.15;5.13;;;;;;;21.13;100.00;102373.34;2615106;36;20022;-62
2021/08/25 10:19:36;;;;;;;9.45;4.65;;;;;;;21.45;100.00;102368.91;2616001;36;20117;-62
2021/08/25 10:22:24;;;;;;;4.75;3.50;;;;;;;21.44;100.00;102369.94;2615651;36;20073;-63
2021/08/25 10:25:11;;;;;;;4.65;3.00;;;;;;;22.19;100.00;102363.34;2616212;32;20606;-62
2021/08/25 10:28:02;;;;;;;6.30;2.42;;;;;;;22.34;100.00;102361.59;2615341;36;20073;-63
2021/08/25 10:30:31;;;;;;;5.75;3.00;;;;;;;21.33;100.00;102358.31;2615194;31;20022;-62
2021/08/25 10:33:11;;;;;;;5.32;3.10;;;;;;;21.15;100.00;102354.84;2615374;36;20065;-62
2021/08/25 10:35:42;;;;;;;5.25;2.60;;;;;;;21.74;100.00;102351.09;2615127;36;20410;-62
2021/08/25 10:38:25;;;;;;;7.90;3.03;;;;;;;22.16;100.00;102349.97;2613864;36;20018;-64
2021/08/25 10:41:00;;;;;;;5.10;2.15;;;;;;;21.85;100.00;102354.34;2615633;31;20027;-63
2021/08/25 10:43:47;;;;;;;5.50;2.65;;;;;;;21.75;100.00;102336.38;2613082;36;20061;-62
2021/08/25 10:46:17;;;;;;;4.70;2.20;;;;;;;21.39;100.00;102337.56;2615359;36;20581;-62
2021/08/25 10:48:55;;;;;;;5.15;2.30;;;;;;;21.81;100.00;102330.19;2616779;36;20130;-63
2021/08/25 10:51:37;;;;;;;3.97;2.35;;;;;;;21.76;100.00;102329.84;2616808;36;20023;-63
2021/08/25 10:54:08;;;;;;;4.55;2.35;;;;;;;21.97;100.00;102321.09;2615623;36;20422;-63
2021/08/25 10:56:39;;;;;;;6.63;2.22;;;;;;;22.09;100.00;102316.06;2617666;31;20517;-65
2021/08/25 10:59:12;;;;;;;2.42;1.90;;;;;;;22.39;100.00;102328.13;2616397;36;20114;-63
2021/08/25 11:01:42;;;;;;;3.78;2.20;;;;;;;22.17;100.00;102327.00;2615920;31;20429;-65
2021/08/25 11:04:15;;;;;;;5.32;2.38;;;;;;;20.75;100.00;102318.19;2615961;36;20150;-63
2021/08/25 11:06:46;;;;;;;8.48;2.17;;;;;;;20.57;100.00;102315.56;2616047;36;20030;-63
2021/08/25 11:09:19;;;;;;;5.20;2.55;;;;;;;21.23;100.00;102322.03;2615724;31;20027;-63
2021/08/25 11:11:50;;;;;;;6.35;2.58;;;;;;;21.77;100.00;102315.13;2615577;36;20034;-64
2021/08/25 11:14:33;;;;;;;4.00;2.38;;;;;;;21.67;100.00;102315.31;2617086;31;20541;-64
2021/08/25 11:17:07;;;;;;;3.83;2.38;;;;;;;21.80;100.00;102301.91;2616648;36;21258;-64
2021/08/25 11:19:40;;;;;;;5.75;2.40;;;;;;;22.20;100.00;102307.44;2617153;36;20110;-64